| time (UTC) | temp C | wind direction | speed KPH | gust KPH | rain 1hr cm | rain 24hr cm | rain mn cm | humidity % | barometer mb |
| 20260510070059 | 24 | 0 | 0.0 | 8.0 | 0.00 | 0.10 | 0.00 | 87 | 1011.5 |
| 20260510064603 | 24 | 163 | 0.0 | 9.7 | 0.00 | 0.10 | 0.00 | 87 | 1011.5 |
| 20260510063059 | 25 | 163 | 0.0 | 11.3 | 0.00 | 0.10 | 0.00 | 87 | 1011.4 |
| 20260510061605 | 25 | 194 | 0.0 | 6.4 | 0.00 | 0.10 | 0.00 | 86 | 1011.5 |
| 20260510060059 | 25 | 0 | 0.0 | 8.0 | 0.00 | 0.10 | 0.00 | 86 | 1011.6 |
| 20260510054603 | 25 | 0 | 0.0 | 8.0 | 0.00 | 0.10 | 0.00 | 86 | 1011.7 |
| 20260510053101 | 25 | 126 | 1.6 | 14.5 | 0.00 | 0.10 | 0.00 | 85 | 1011.7 |
| 20260510051601 | 25 | 0 | 1.6 | 9.7 | 0.00 | 0.10 | 0.00 | 85 | 1011.8 |
| 20260510050059 | 25 | 0 | 0.0 | 8.0 | 0.00 | 0.10 | 0.00 | 84 | 1011.7 |
| 20260510044559 | 25 | 0 | 0.0 | 6.4 | 0.00 | 0.10 | 0.10 | 84 | 1011.8 |
| 20260510043111 | 25 | 0 | 0.0 | 9.7 | 0.00 | 0.10 | 0.10 | 83 | 1012.0 |
| 20260510041604 | 26 | 0 | 1.6 | 9.7 | 0.00 | 0.10 | 0.10 | 82 | 1012.2 |
| 20260510040107 | 26 | 133 | 1.6 | 6.4 | 0.00 | 0.10 | 0.10 | 81 | 1011.6 |
| 20260510034602 | 26 | 0 | 1.6 | 9.7 | 0.00 | 0.10 | 0.10 | 81 | 1011.9 |
| 20260510033108 | 26 | 94 | 3.2 | 12.9 | 0.00 | 0.10 | 0.10 | 80 | 1012.0 |
| 20260510031606 | 27 | 134 | 3.2 | 14.5 | 0.00 | 0.10 | 0.10 | 78 | 1012.0 |
| 20260510030103 | 27 | 56 | 8.0 | 20.9 | 0.00 | 0.10 | 0.10 | 74 | 1011.9 |
| 20260510024601 | 26 | 0 | 0.0 | 11.3 | 0.00 | 0.10 | 0.10 | 70 | 1011.6 |
| 20260510023057 | 26 | 119 | 0.0 | 11.3 | 0.00 | 0.10 | 0.10 | 70 | 1011.2 |
| 20260510021559 | 25 | 0 | 0.0 | 0.0 | 0.00 | 0.10 | 0.10 | 73 | 1010.8 |
| 20260510020058 | 25 | 0 | 0.0 | 0.0 | 0.00 | 0.10 | 0.10 | 78 | 1010.4 |
| 20260510014601 | 25 | 0 | 0.0 | 0.0 | 0.00 | 0.10 | 0.10 | 80 | 1010.0 |
| 20260510013111 | 25 | 0 | 0.0 | 0.0 | 0.00 | 0.10 | 0.10 | 78 | 1009.6 |
| 20260510011600 | 25 | 0 | 0.0 | 0.0 | 0.00 | 0.10 | 0.10 | 76 | 1009.6 |
| 20260510010058 | 25 | 0 | 0.0 | 4.8 | 0.00 | 0.10 | 0.10 | 75 | 1009.3 |
| 20260510004604 | 25 | 0 | 0.0 | 0.0 | 0.03 | 0.10 | 0.10 | 74 | 1008.7 |
| 20260510003105 | 26 | 286 | 6.4 | 17.7 | 0.10 | 0.10 | 0.10 | 72 | 1009.0 |
| 20260510001600 | 28 | 0 | 0.0 | 0.0 | 0.10 | 0.10 | 0.10 | 76 | 1009.1 |
| 20260510000100 | 29 | 0 | 0.0 | 0.0 | 0.10 | 0.10 | 0.10 | 69 | 1009.0 |
| 20260509234602 | 31 | 215 | 4.8 | 14.5 | 0.08 | 0.08 | 0.08 | 61 | 1008.4 |
| 20260509233112 | 32 | 178 | 3.2 | 14.5 | 0.00 | 0.00 | 0.00 | 49 | 1008.4 |
| 20260509231605 | 33 | 180 | 1.6 | 12.9 | 0.00 | 0.00 | 0.00 | 47 | 1008.2 |
| 20260509224600 | 32 | 0 | 1.6 | 8.0 | 0.00 | 0.00 | 0.00 | 51 | 1008.0 |
| 20260509223059 | 33 | 58 | 3.2 | 9.7 | 0.00 | 0.00 | 0.00 | 51 | 1008.0 |
| 20260509221600 | 33 | 0 | 0.0 | 6.4 | 0.00 | 0.00 | 0.00 | 50 | 1008.0 |
| 20260509220058 | 33 | 53 | 1.6 | 9.7 | 0.00 | 0.00 | 0.00 | 49 | 1007.9 |
| 20260509214559 | 33 | 0 | 0.0 | 14.5 | 0.00 | 0.00 | 0.00 | 49 | 1007.9 |
| 20260509213101 | 33 | 290 | 0.0 | 8.0 | 0.00 | 0.00 | 0.00 | 49 | 1008.0 |
| 20260509211557 | 33 | 0 | 0.0 | 9.7 | 0.00 | 0.00 | 0.00 | 50 | 1008.0 |
| 20260509210108 | 33 | 46 | 0.0 | 11.3 | 0.00 | 0.00 | 0.00 | 50 | 1008.3 |
| 20260509204604 | 33 | 0 | 1.6 | 11.3 | 0.00 | 0.00 | 0.00 | 50 | 1008.5 |
| 20260509203101 | 32 | 294 | 1.6 | 14.5 | 0.00 | 0.00 | 0.00 | 53 | 1008.7 |
| 20260509201600 | 32 | 306 | 1.6 | 12.9 | 0.00 | 0.00 | 0.00 | 55 | 1008.7 |
| 20260509200109 | 32 | 101 | 1.6 | 12.9 | 0.00 | 0.00 | 0.00 | 55 | 1008.9 |
| 20260509194559 | 32 | 34 | 1.6 | 8.0 | 0.00 | 0.00 | 0.00 | 52 | 1009.0 |
| 20260509193102 | 32 | 0 | 1.6 | 6.4 | 0.00 | 0.00 | 0.00 | 58 | 1009.1 |
| 20260509191606 | 31 | 37 | 0.0 | 14.5 | 0.00 | 0.00 | 0.00 | 58 | 1009.2 |
| 20260509184701 | 31 | 138 | 1.6 | 8.0 | 0.00 | 0.10 | 0.00 | 57 | 1009.3 |
| 20260509183110 | 31 | 0 | 3.2 | 8.0 | 0.00 | 0.10 | 0.00 | 62 | 1009.7 |
| 20260509181558 | 30 | 227 | 3.2 | 11.3 | 0.00 | 0.10 | 0.00 | 63 | 1010.0 |
| 20260509180110 | 30 | 193 | 4.8 | 16.1 | 0.00 | 0.10 | 0.00 | 65 | 1010.5 |
| 20260509174558 | 30 | 205 | 9.7 | 19.3 | 0.00 | 0.18 | 0.00 | 66 | 1010.5 |
| 20260509173102 | 30 | 179 | 6.4 | 17.7 | 0.00 | 0.18 | 0.00 | 68 | 1010.7 |
| 20260509171558 | 28 | 0 | 1.6 | 9.7 | 0.00 | 0.18 | 0.00 | 72 | 1011.0 |
| 20260509164559 | 27 | 123 | 0.0 | 4.8 | 0.00 | 0.18 | 0.00 | 80 | 1011.1 |
| 20260509163111 | 27 | 118 | 3.2 | 4.8 | 0.00 | 0.18 | 0.00 | 80 | 1011.1 |
| 20260509161603 | 27 | 0 | 0.0 | 0.0 | 0.00 | 0.18 | 0.00 | 81 | 1011.1 |
| 20260509160108 | 26 | 0 | 0.0 | 3.2 | 0.00 | 0.18 | 0.00 | 82 | 1011.0 |
| 20260509154611 | 26 | 0 | 0.0 | 4.8 | 0.00 | 0.18 | 0.00 | 83 | 1011.0 |
| 20260509153112 | 26 | 0 | 0.0 | 6.4 | 0.00 | 0.18 | 0.00 | 85 | 1010.8 |
| 20260509151603 | 26 | 146 | 0.0 | 3.2 | 0.00 | 0.18 | 0.00 | 89 | 1010.9 |
| 20260509150059 | 25 | 0 | 0.0 | 0.0 | 0.00 | 0.18 | 0.00 | 91 | 1010.9 |
| 20260509144600 | 25 | 0 | 0.0 | 4.8 | 0.00 | 0.18 | 0.00 | 91 | 1010.8 |
| 20260509143059 | 25 | 0 | 0.0 | 0.0 | 0.00 | 0.18 | 0.00 | 92 | 1010.4 |
| 20260509141604 | 25 | 0 | 0.0 | 3.2 | 0.00 | 0.18 | 0.00 | 92 | 1010.2 |
| 20260509140103 | 25 | 0 | 0.0 | 8.0 | 0.00 | 0.18 | 0.00 | 93 | 1010.0 |
| 20260509134603 | 25 | 0 | 0.0 | 8.0 | 0.00 | 0.18 | 0.00 | 93 | 1010.3 |
| 20260509133102 | 24 | 0 | 0.0 | 1.6 | 0.00 | 0.18 | 0.00 | 93 | 1010.9 |
| 20260509131604 | 24 | 0 | 0.0 | 0.0 | 0.00 | 0.18 | 0.00 | 93 | 1011.2 |
| 20260509130107 | 24 | 0 | 0.0 | 4.8 | 0.00 | 0.18 | 0.00 | 93 | 1011.0 |
| 20260509124601 | 24 | 167 | 0.0 | 4.8 | 0.00 | 0.18 | 0.00 | 93 | 1010.9 |
| 20260509123104 | 24 | 0 | 0.0 | 0.0 | 0.00 | 0.18 | 0.00 | 93 | 1011.0 |
| 20260509121558 | 23 | 0 | 0.0 | 0.0 | 0.00 | 0.18 | 0.00 | 93 | 1010.9 |
| 20260509114601 | 23 | 0 | 0.0 | 0.0 | 0.00 | 0.18 | 0.00 | 93 | 1010.4 |
| 20260509113124 | 23 | 0 | 0.0 | 0.0 | 0.00 | 0.18 | 0.00 | 93 | 1010.7 |
| 20260509111605 | 24 | 0 | 0.0 | 0.0 | 0.00 | 0.18 | 0.00 | 93 | 1010.6 |
| 20260509110058 | 23 | 0 | 0.0 | 0.0 | 0.00 | 0.18 | 0.00 | 93 | 1010.3 |
| 20260509104600 | 23 | 0 | 0.0 | 4.8 | 0.00 | 0.18 | 0.00 | 93 | 1010.1 |
| 20260509103103 | 23 | 167 | 0.0 | 4.8 | 0.00 | 0.18 | 0.00 | 93 | 1010.2 |
| 20260509101559 | 23 | 0 | 0.0 | 0.0 | 0.00 | 0.18 | 0.00 | 92 | 1010.0 |
| 20260509100114 | 23 | 0 | 0.0 | 0.0 | 0.00 | 0.18 | 0.00 | 92 | 1010.0 |
| 20260509094604 | 23 | 0 | 0.0 | 0.0 | 0.00 | 0.18 | 0.00 | 92 | 1010.0 |
| 20260509093107 | 23 | 0 | 0.0 | 0.0 | 0.00 | 0.18 | 0.00 | 92 | 1009.9 |
| 20260509091613 | 24 | 0 | 0.0 | 0.0 | 0.00 | 0.18 | 0.00 | 92 | 1010.0 |
| 20260509090101 | 24 | 0 | 0.0 | 0.0 | 0.00 | 0.18 | 0.00 | 92 | 1010.1 |
| 20260509084600 | 24 | 0 | 0.0 | 0.0 | 0.00 | 0.18 | 0.00 | 92 | 1009.9 |
| 20260509083058 | 24 | 0 | 0.0 | 6.4 | 0.00 | 0.18 | 0.00 | 92 | 1009.8 |
| 20260509081602 | 24 | 0 | 0.0 | 8.0 | 0.00 | 0.18 | 0.00 | 92 | 1010.2 |
| 20260509080101 | 24 | 0 | 0.0 | 0.0 | 0.00 | 0.18 | 0.00 | 92 | 1009.8 |
| 20260509074602 | 24 | 0 | 0.0 | 4.8 | 0.00 | 0.18 | 0.00 | 92 | 1009.8 |
| 20260509073107 | 24 | 0 | 0.0 | 1.6 | 0.00 | 0.18 | 0.00 | 92 | 1010.3 |
| 20260509071558 | 24 | 157 | 0.0 | 4.8 | 0.00 | 0.18 | 0.00 | 92 | 1010.3 |